sensor_id;sensor_type;location;lat;lon;timestamp;P1;durP1;ratioP1;P2;durP2;ratioP2
75508;SDS011;64214;47.250;11.332;2022-11-15T00:00:27;1.80;;;1.25;;
75508;SDS011;64214;47.250;11.332;2022-11-15T00:00:57;2.60;;;1.60;;
75508;SDS011;64214;47.250;11.332;2022-11-15T00:01:27;1.75;;;1.23;;
75508;SDS011;64214;47.250;11.332;2022-11-15T00:01:56;2.05;;;1.50;;
75508;SDS011;64214;47.250;11.332;2022-11-15T00:02:26;2.10;;;1.42;;
75508;SDS011;64214;47.250;11.332;2022-11-15T00:02:56;2.10;;;1.40;;
75508;SDS011;64214;47.250;11.332;2022-11-15T00:03:26;1.85;;;1.50;;
75508;SDS011;64214;47.250;11.332;2022-11-15T00:03:56;2.55;;;1.40;;
75508;SDS011;64214;47.250;11.332;2022-11-15T00:04:26;2.15;;;1.45;;
75508;SDS011;64214;47.250;11.332;2022-11-15T00:04:56;1.75;;;1.40;;
75508;SDS011;64214;47.250;11.332;2022-11-15T00:05:26;1.95;;;1.17;;
75508;SDS011;64214;47.250;11.332;2022-11-15T00:06:00;1.27;;;1.10;;
75508;SDS011;64214;47.250;11.332;2022-11-15T00:06:31;2.00;;;1.20;;
75508;SDS011;64214;47.250;11.332;2022-11-15T00:07:01;1.73;;;1.08;;
75508;SDS011;64214;47.250;11.332;2022-11-15T00:07:31;1.20;;;1.08;;
75508;SDS011;64214;47.250;11.332;2022-11-15T00:08:01;1.93;;;1.23;;
75508;SDS011;64214;47.250;11.332;2022-11-15T00:08:31;1.30;;;1.00;;
75508;SDS011;64214;47.250;11.332;2022-11-15T00:09:01;1.40;;;1.08;;
75508;SDS011;64214;47.250;11.332;2022-11-15T00:09:32;1.20;;;1.10;;
75508;SDS011;64214;47.250;11.332;2022-11-15T00:10:01;1.63;;;1.27;;
75508;SDS011;64214;47.250;11.332;2022-11-15T00:10:31;1.67;;;1.20;;
75508;SDS011;64214;47.250;11.332;2022-11-15T00:11:02;1.13;;;0.95;;
75508;SDS011;64214;47.250;11.332;2022-11-15T00:11:32;2.08;;;1.15;;
75508;SDS011;64214;47.250;11.332;2022-11-15T00:12:02;1.67;;;1.10;;
75508;SDS011;64214;47.250;11.332;2022-11-15T00:12:32;1.55;;;1.00;;
75508;SDS011;64214;47.250;11.332;2022-11-15T00:13:11;1.65;;;1.10;;
75508;SDS011;64214;47.250;11.332;2022-11-15T00:13:41;2.10;;;1.35;;
75508;SDS011;64214;47.250;11.332;2022-11-15T00:14:11;3.03;;;1.38;;
75508;SDS011;64214;47.250;11.332;2022-11-15T00:14:40;1.35;;;1.17;;
75508;SDS011;64214;47.250;11.332;2022-11-15T00:15:10;1.25;;;1.10;;
75508;SDS011;64214;47.250;11.332;2022-11-15T00:15:40;2.03;;;1.33;;
75508;SDS011;64214;47.250;11.332;2022-11-15T00:16:10;1.92;;;1.35;;
75508;SDS011;64214;47.250;11.332;2022-11-15T00:16:40;1.40;;;1.27;;
75508;SDS011;64214;47.250;11.332;2022-11-15T00:17:10;1.50;;;1.17;;
75508;SDS011;64214;47.250;11.332;2022-11-15T00:17:40;1.77;;;1.40;;
75508;SDS011;64214;47.250;11.332;2022-11-15T00:18:13;1.83;;;1.73;;
75508;SDS011;64214;47.250;11.332;2022-11-15T00:18:43;1.67;;;1.48;;
75508;SDS011;64214;47.250;11.332;2022-11-15T00:19:13;1.92;;;1.35;;
75508;SDS011;64214;47.250;11.332;2022-11-15T00:19:43;2.30;;;1.33;;
75508;SDS011;64214;47.250;11.332;2022-11-15T00:20:14;1.55;;;1.30;;
75508;SDS011;64214;47.250;11.332;2022-11-15T00:20:43;2.35;;;1.40;;
75508;SDS011;64214;47.250;11.332;2022-11-15T00:21:14;1.58;;;1.10;;
75508;SDS011;64214;47.250;11.332;2022-11-15T00:21:45;1.38;;;1.02;;
75508;SDS011;64214;47.250;11.332;2022-11-15T00:22:15;1.80;;;1.20;;
75508;SDS011;64214;47.250;11.332;2022-11-15T00:22:44;1.25;;;1.08;;
75508;SDS011;64214;47.250;11.332;2022-11-15T00:23:14;1.40;;;1.20;;
75508;SDS011;64214;47.250;11.332;2022-11-15T00:23:44;1.25;;;1.10;;
75508;SDS011;64214;47.250;11.332;2022-11-15T00:24:14;2.22;;;1.40;;
75508;SDS011;64214;47.250;11.332;2022-11-15T00:24:44;2.30;;;1.20;;
75508;SDS011;64214;47.250;11.332;2022-11-15T00:25:13;1.50;;;1.30;;
75508;SDS011;64214;47.250;11.332;2022-11-15T00:25:43;1.98;;;1.40;;
75508;SDS011;64214;47.250;11.332;2022-11-15T00:26:13;1.40;;;1.17;;
75508;SDS011;64214;47.250;11.332;2022-11-15T00:26:43;1.52;;;1.20;;
75508;SDS011;64214;47.250;11.332;2022-11-15T00:27:13;1.75;;;1.20;;
75508;SDS011;64214;47.250;11.332;2022-11-15T00:27:43;1.73;;;1.00;;
75508;SDS011;64214;47.250;11.332;2022-11-15T00:28:14;1.80;;;1.10;;
75508;SDS011;64214;47.250;11.332;2022-11-15T00:28:44;1.48;;;1.30;;
75508;SDS011;64214;47.250;11.332;2022-11-15T00:29:13;1.50;;;1.17;;
75508;SDS011;64214;47.250;11.332;2022-11-15T00:29:43;1.90;;;1.15;;
75508;SDS011;64214;47.250;11.332;2022-11-15T00:30:13;1.73;;;1.20;;
75508;SDS011;64214;47.250;11.332;2022-11-15T00:30:43;1.38;;;1.20;;
75508;SDS011;64214;47.250;11.332;2022-11-15T00:31:13;1.85;;;1.30;;
75508;SDS011;64214;47.250;11.332;2022-11-15T00:31:44;1.80;;;1.20;;
75508;SDS011;64214;47.250;11.332;2022-11-15T00:32:14;2.30;;;1.40;;
75508;SDS011;64214;47.250;11.332;2022-11-15T00:32:43;2.47;;;1.50;;
75508;SDS011;64214;47.250;11.332;2022-11-15T00:33:13;1.75;;;1.30;;
75508;SDS011;64214;47.250;11.332;2022-11-15T00:33:43;1.92;;;1.48;;
75508;SDS011;64214;47.250;11.332;2022-11-15T00:34:13;1.60;;;1.20;;
75508;SDS011;64214;47.250;11.332;2022-11-15T00:34:43;1.60;;;1.20;;
75508;SDS011;64214;47.250;11.332;2022-11-15T00:35:13;1.75;;;1.25;;
75508;SDS011;64214;47.250;11.332;2022-11-15T00:35:42;1.33;;;1.17;;
75508;SDS011;64214;47.250;11.332;2022-11-15T00:36:12;2.03;;;1.30;;
75508;SDS011;64214;47.250;11.332;2022-11-15T00:36:42;3.95;;;1.40;;
75508;SDS011;64214;47.250;11.332;2022-11-15T00:37:12;1.70;;;1.30;;
75508;SDS011;64214;47.250;11.332;2022-11-15T00:37:42;1.83;;;1.30;;
75508;SDS011;64214;47.250;11.332;2022-11-15T00:38:11;1.42;;;1.10;;
75508;SDS011;64214;47.250;11.332;2022-11-15T00:38:41;1.77;;;1.20;;
75508;SDS011;64214;47.250;11.332;2022-11-15T00:39:11;2.03;;;1.33;;
75508;SDS011;64214;47.250;11.332;2022-11-15T00:39:41;1.52;;;1.27;;
75508;SDS011;64214;47.250;11.332;2022-11-15T00:40:10;1.80;;;1.10;;
75508;SDS011;64214;47.250;11.332;2022-11-15T00:40:42;1.92;;;1.15;;
75508;SDS011;64214;47.250;11.332;2022-11-15T00:41:11;1.75;;;1.23;;
75508;SDS011;64214;47.250;11.332;2022-11-15T00:41:41;2.72;;;1.30;;
75508;SDS011;64214;47.250;11.332;2022-11-15T00:42:11;2.00;;;1.30;;
75508;SDS011;64214;47.250;11.332;2022-11-15T00:42:41;2.22;;;1.17;;
75508;SDS011;64214;47.250;11.332;2022-11-15T00:43:11;2.10;;;1.20;;
75508;SDS011;64214;47.250;11.332;2022-11-15T00:43:41;1.60;;;1.20;;
75508;SDS011;64214;47.250;11.332;2022-11-15T00:44:12;1.85;;;1.35;;
75508;SDS011;64214;47.250;11.332;2022-11-15T00:44:42;1.83;;;1.27;;
75508;SDS011;64214;47.250;11.332;2022-11-15T00:45:13;2.85;;;1.10;;
75508;SDS011;64214;47.250;11.332;2022-11-15T00:45:42;1.90;;;1.30;;
75508;SDS011;64214;47.250;11.332;2022-11-15T00:46:12;1.85;;;1.30;;
75508;SDS011;64214;47.250;11.332;2022-11-15T00:46:42;1.73;;;1.48;;
75508;SDS011;64214;47.250;11.332;2022-11-15T00:47:12;1.80;;;1.20;;
75508;SDS011;64214;47.250;11.332;2022-11-15T00:47:45;1.73;;;1.27;;
75508;SDS011;64214;47.250;11.332;2022-11-15T00:48:15;2.58;;;1.30;;
75508;SDS011;64214;47.250;11.332;2022-11-15T00:48:45;1.45;;;1.15;;
75508;SDS011;64214;47.250;11.332;2022-11-15T00:49:15;1.52;;;1.10;;
75508;SDS011;64214;47.250;11.332;2022-11-15T00:49:44;3.03;;;1.48;;
75508;SDS011;64214;47.250;11.332;2022-11-15T00:50:14;2.42;;;1.17;;
75508;SDS011;64214;47.250;11.332;2022-11-15T00:50:44;2.67;;;1.27;;
75508;SDS011;64214;47.250;11.332;2022-11-15T00:51:14;1.60;;;1.10;;
75508;SDS011;64214;47.250;11.332;2022-11-15T00:51:43;1.65;;;1.08;;
75508;SDS011;64214;47.250;11.332;2022-11-15T00:52:13;1.40;;;1.00;;
75508;SDS011;64214;47.250;11.332;2022-11-15T00:52:43;1.55;;;1.13;;
75508;SDS011;64214;47.250;11.332;2022-11-15T00:53:13;1.48;;;1.17;;
75508;SDS011;64214;47.250;11.332;2022-11-15T00:53:42;1.80;;;1.40;;
75508;SDS011;64214;47.250;11.332;2022-11-15T00:54:12;1.63;;;1.30;;
75508;SDS011;64214;47.250;11.332;2022-11-15T00:54:42;1.60;;;1.20;;
75508;SDS011;64214;47.250;11.332;2022-11-15T00:55:15;1.95;;;1.30;;
75508;SDS011;64214;47.250;11.332;2022-11-15T00:55:46;1.92;;;1.30;;
75508;SDS011;64214;47.250;11.332;2022-11-15T00:56:16;2.00;;;1.20;;
75508;SDS011;64214;47.250;11.332;2022-11-15T00:56:46;2.35;;;1.30;;
75508;SDS011;64214;47.250;11.332;2022-11-15T00:57:16;1.95;;;1.20;;
75508;SDS011;64214;47.250;11.332;2022-11-15T00:57:45;1.60;;;1.20;;
75508;SDS011;64214;47.250;11.332;2022-11-15T00:58:15;2.42;;;1.50;;
75508;SDS011;64214;47.250;11.332;2022-11-15T00:58:45;1.85;;;1.20;;
75508;SDS011;64214;47.250;11.332;2022-11-15T00:59:14;1.67;;;1.38;;
75508;SDS011;64214;47.250;11.332;2022-11-15T00:59:44;2.17;;;1.13;;
75508;SDS011;64214;47.250;11.332;2022-11-15T01:00:14;1.60;;;1.27;;
75508;SDS011;64214;47.250;11.332;2022-11-15T01:00:43;2.33;;;1.30;;
75508;SDS011;64214;47.250;11.332;2022-11-15T01:01:13;1.83;;;1.15;;
75508;SDS011;64214;47.250;11.332;2022-11-15T01:01:43;1.65;;;1.40;;
75508;SDS011;64214;47.250;11.332;2022-11-15T01:02:13;1.80;;;1.25;;
75508;SDS011;64214;47.250;11.332;2022-11-15T01:02:42;1.88;;;1.48;;
75508;SDS011;64214;47.250;11.332;2022-11-15T01:03:12;1.77;;;1.55;;
75508;SDS011;64214;47.250;11.332;2022-11-15T01:03:42;2.13;;;1.33;;
75508;SDS011;64214;47.250;11.332;2022-11-15T01:04:11;1.42;;;1.27;;
75508;SDS011;64214;47.250;11.332;2022-11-15T01:04:41;2.28;;;1.20;;
75508;SDS011;64214;47.250;11.332;2022-11-15T01:05:11;1.50;;;1.40;;
75508;SDS011;64214;47.250;11.332;2022-11-15T01:05:40;1.10;;;1.00;;
75508;SDS011;64214;47.250;11.332;2022-11-15T01:06:10;1.70;;;1.20;;
75508;SDS011;64214;47.250;11.332;2022-11-15T01:06:40;2.13;;;1.48;;
75508;SDS011;64214;47.250;11.332;2022-11-15T01:07:10;2.20;;;1.40;;
75508;SDS011;64214;47.250;11.332;2022-11-15T01:07:40;2.25;;;1.42;;
75508;SDS011;64214;47.250;11.332;2022-11-15T01:08:13;1.88;;;1.25;;
75508;SDS011;64214;47.250;11.332;2022-11-15T01:08:43;1.60;;;1.08;;
75508;SDS011;64214;47.250;11.332;2022-11-15T01:09:13;1.80;;;1.20;;
75508;SDS011;64214;47.250;11.332;2022-11-15T01:09:43;1.70;;;1.20;;
75508;SDS011;64214;47.250;11.332;2022-11-15T01:10:12;1.63;;;1.20;;
75508;SDS011;64214;47.250;11.332;2022-11-15T01:10:42;2.40;;;1.20;;
75508;SDS011;64214;47.250;11.332;2022-11-15T01:11:12;1.50;;;1.17;;
75508;SDS011;64214;47.250;11.332;2022-11-15T01:11:41;1.38;;;1.17;;
75508;SDS011;64214;47.250;11.332;2022-11-15T01:12:11;1.90;;;1.27;;
75508;SDS011;64214;47.250;11.332;2022-11-15T01:12:41;1.60;;;1.30;;
75508;SDS011;64214;47.250;11.332;2022-11-15T01:13:11;1.90;;;1.20;;
75508;SDS011;64214;47.250;11.332;2022-11-15T01:13:40;1.30;;;0.90;;
75508;SDS011;64214;47.250;11.332;2022-11-15T01:14:10;1.35;;;1.08;;
75508;SDS011;64214;47.250;11.332;2022-11-15T01:14:40;1.45;;;1.10;;
75508;SDS011;64214;47.250;11.332;2022-11-15T01:15:09;1.80;;;1.40;;
75508;SDS011;64214;47.250;11.332;2022-11-15T01:15:40;1.63;;;1.30;;
75508;SDS011;64214;47.250;11.332;2022-11-15T01:16:11;1.65;;;1.30;;
75508;SDS011;64214;47.250;11.332;2022-11-15T01:16:42;1.90;;;1.30;;
75508;SDS011;64214;47.250;11.332;2022-11-15T01:17:12;1.45;;;1.20;;
75508;SDS011;64214;47.250;11.332;2022-11-15T01:17:41;1.45;;;1.10;;
75508;SDS011;64214;47.250;11.332;2022-11-15T01:18:11;1.40;;;1.10;;
75508;SDS011;64214;47.250;11.332;2022-11-15T01:18:40;1.27;;;0.90;;
75508;SDS011;64214;47.250;11.332;2022-11-15T01:19:10;1.40;;;1.05;;
75508;SDS011;64214;47.250;11.332;2022-11-15T01:19:40;2.15;;;1.30;;
75508;SDS011;64214;47.250;11.332;2022-11-15T01:20:10;1.75;;;1.20;;
75508;SDS011;64214;47.250;11.332;2022-11-15T01:20:41;1.60;;;1.20;;
75508;SDS011;64214;47.250;11.332;2022-11-15T01:21:12;1.65;;;1.27;;
75508;SDS011;64214;47.250;11.332;2022-11-15T01:21:43;1.42;;;1.20;;
75508;SDS011;64214;47.250;11.332;2022-11-15T01:22:13;1.60;;;1.15;;
75508;SDS011;64214;47.250;11.332;2022-11-15T01:22:43;1.65;;;1.10;;
75508;SDS011;64214;47.250;11.332;2022-11-15T01:23:13;2.15;;;1.17;;
75508;SDS011;64214;47.250;11.332;2022-11-15T01:23:42;2.20;;;1.30;;
75508;SDS011;64214;47.250;11.332;2022-11-15T01:24:12;1.30;;;1.20;;
75508;SDS011;64214;47.250;11.332;2022-11-15T01:24:42;2.30;;;1.77;;
75508;SDS011;64214;47.250;11.332;2022-11-15T01:25:12;2.22;;;1.40;;
75508;SDS011;64214;47.250;11.332;2022-11-15T01:25:41;1.58;;;1.40;;
75508;SDS011;64214;47.250;11.332;2022-11-15T01:26:12;1.48;;;1.30;;
75508;SDS011;64214;47.250;11.332;2022-11-15T01:26:43;1.33;;;1.23;;
75508;SDS011;64214;47.250;11.332;2022-11-15T01:27:13;1.95;;;1.38;;
75508;SDS011;64214;47.250;11.332;2022-11-15T01:27:43;1.70;;;1.25;;
75508;SDS011;64214;47.250;11.332;2022-11-15T01:28:12;1.80;;;1.38;;
75508;SDS011;64214;47.250;11.332;2022-11-15T01:28:43;1.70;;;1.27;;
75508;SDS011;64214;47.250;11.332;2022-11-15T01:29:13;1.60;;;1.20;;
75508;SDS011;64214;47.250;11.332;2022-11-15T01:29:43;2.78;;;1.27;;
75508;SDS011;64214;47.250;11.332;2022-11-15T01:30:12;1.80;;;1.10;;
75508;SDS011;64214;47.250;11.332;2022-11-15T01:30:42;1.60;;;1.50;;
75508;SDS011;64214;47.250;11.332;2022-11-15T01:31:13;1.85;;;1.30;;
75508;SDS011;64214;47.250;11.332;2022-11-15T01:31:44;1.35;;;1.13;;
75508;SDS011;64214;47.250;11.332;2022-11-15T01:32:13;1.42;;;1.00;;
75508;SDS011;64214;47.250;11.332;2022-11-15T01:32:43;1.90;;;1.30;;
75508;SDS011;64214;47.250;11.332;2022-11-15T01:33:13;1.95;;;1.20;;
75508;SDS011;64214;47.250;11.332;2022-11-15T01:33:43;2.13;;;1.20;;
75508;SDS011;64214;47.250;11.332;2022-11-15T01:34:13;1.80;;;1.08;;
75508;SDS011;64214;47.250;11.332;2022-11-15T01:34:44;1.88;;;1.30;;
75508;SDS011;64214;47.250;11.332;2022-11-15T01:35:14;1.77;;;1.38;;
75508;SDS011;64214;47.250;11.332;2022-11-15T01:35:44;2.45;;;1.48;;
75508;SDS011;64214;47.250;11.332;2022-11-15T01:36:15;1.80;;;1.30;;
75508;SDS011;64214;47.250;11.332;2022-11-15T01:36:46;2.00;;;1.27;;
75508;SDS011;64214;47.250;11.332;2022-11-15T01:37:16;1.52;;;1.08;;
75508;SDS011;64214;47.250;11.332;2022-11-15T01:37:45;1.70;;;1.45;;
75508;SDS011;64214;47.250;11.332;2022-11-15T01:38:15;1.70;;;1.30;;
75508;SDS011;64214;47.250;11.332;2022-11-15T01:38:45;2.03;;;1.35;;
75508;SDS011;64214;47.250;11.332;2022-11-15T01:39:14;1.65;;;1.40;;
75508;SDS011;64214;47.250;11.332;2022-11-15T01:39:44;1.77;;;1.10;;
75508;SDS011;64214;47.250;11.332;2022-11-15T01:40:14;2.47;;;1.38;;
75508;SDS011;64214;47.250;11.332;2022-11-15T01:40:43;2.30;;;1.30;;
75508;SDS011;64214;47.250;11.332;2022-11-15T01:41:14;1.95;;;1.25;;
75508;SDS011;64214;47.250;11.332;2022-11-15T01:41:48;2.03;;;1.40;;
75508;SDS011;64214;47.250;11.332;2022-11-15T01:42:18;2.70;;;1.52;;
75508;SDS011;64214;47.250;11.332;2022-11-15T01:42:48;2.70;;;1.40;;
75508;SDS011;64214;47.250;11.332;2022-11-15T01:43:18;2.22;;;1.27;;
75508;SDS011;64214;47.250;11.332;2022-11-15T01:45:05;2.43;;;1.40;;
75508;SDS011;64214;47.250;11.332;2022-11-15T01:45:35;2.33;;;1.50;;
75508;SDS011;64214;47.250;11.332;2022-11-15T01:46:54;2.20;;;1.60;;
75508;SDS011;64214;47.250;11.332;2022-11-15T01:47:40;2.35;;;1.55;;
75508;SDS011;64214;47.250;11.332;2022-11-15T01:48:10;2.33;;;1.50;;
75508;SDS011;64214;47.250;11.332;2022-11-15T01:48:40;2.65;;;1.48;;
75508;SDS011;64214;47.250;11.332;2022-11-15T01:49:14;2.28;;;1.60;;
75508;SDS011;64214;47.250;11.332;2022-11-15T01:49:51;2.53;;;1.65;;
75508;SDS011;64214;47.250;11.332;2022-11-15T01:50:23;2.58;;;1.50;;
75508;SDS011;64214;47.250;11.332;2022-11-15T01:50:56;2.28;;;1.77;;
75508;SDS011;64214;47.250;11.332;2022-11-15T01:51:26;2.47;;;1.40;;
75508;SDS011;64214;47.250;11.332;2022-11-15T01:51:58;2.13;;;1.57;;
75508;SDS011;64214;47.250;11.332;2022-11-15T01:52:30;2.83;;;1.52;;
75508;SDS011;64214;47.250;11.332;2022-11-15T01:53:01;2.50;;;1.60;;
75508;SDS011;64214;47.250;11.332;2022-11-15T01:53:31;1.95;;;1.30;;
75508;SDS011;64214;47.250;11.332;2022-11-15T01:54:03;1.63;;;1.33;;
75508;SDS011;64214;47.250;11.332;2022-11-15T01:54:34;2.35;;;1.38;;
75508;SDS011;64214;47.250;11.332;2022-11-15T01:55:15;2.10;;;1.50;;
75508;SDS011;64214;47.250;11.332;2022-11-15T01:55:48;1.97;;;1.33;;
75508;SDS011;64214;47.250;11.332;2022-11-15T01:56:18;3.08;;;1.48;;
75508;SDS011;64214;47.250;11.332;2022-11-15T01:56:56;1.85;;;1.40;;
75508;SDS011;64214;47.250;11.332;2022-11-15T01:57:31;2.60;;;1.38;;
75508;SDS011;64214;47.250;11.332;2022-11-15T01:58:02;1.90;;;1.40;;
75508;SDS011;64214;47.250;11.332;2022-11-15T01:58:34;2.22;;;1.30;;
75508;SDS011;64214;47.250;11.332;2022-11-15T01:59:03;2.03;;;1.40;;
75508;SDS011;64214;47.250;11.332;2022-11-15T01:59:34;2.35;;;1.40;;
75508;SDS011;64214;47.250;11.332;2022-11-15T02:00:06;2.90;;;1.50;;
75508;SDS011;64214;47.250;11.332;2022-11-15T02:00:36;2.40;;;1.70;;
75508;SDS011;64214;47.250;11.332;2022-11-15T02:01:06;3.33;;;1.50;;
75508;SDS011;64214;47.250;11.332;2022-11-15T02:01:36;1.98;;;1.58;;
75508;SDS011;64214;47.250;11.332;2022-11-15T02:02:06;2.10;;;1.63;;
75508;SDS011;64214;47.250;11.332;2022-11-15T02:02:36;2.40;;;1.60;;
75508;SDS011;64214;47.250;11.332;2022-11-15T02:03:06;2.90;;;1.75;;
75508;SDS011;64214;47.250;11.332;2022-11-15T02:03:39;1.83;;;1.50;;
75508;SDS011;64214;47.250;11.332;2022-11-15T02:04:20;2.63;;;1.55;;
75508;SDS011;64214;47.250;11.332;2022-11-15T02:04:57;2.78;;;1.63;;
75508;SDS011;64214;47.250;11.332;2022-11-15T02:05:27;2.10;;;1.60;;
75508;SDS011;64214;47.250;11.332;2022-11-15T02:05:59;2.10;;;1.40;;
75508;SDS011;64214;47.250;11.332;2022-11-15T02:06:29;1.90;;;1.50;;
75508;SDS011;64214;47.250;11.332;2022-11-15T02:06:59;1.77;;;1.52;;
75508;SDS011;64214;47.250;11.332;2022-11-15T02:07:29;2.08;;;1.25;;
75508;SDS011;64214;47.250;11.332;2022-11-15T02:08:00;1.85;;;1.45;;
75508;SDS011;64214;47.250;11.332;2022-11-15T02:08:30;1.77;;;1.30;;
75508;SDS011;64214;47.250;11.332;2022-11-15T02:09:00;2.13;;;1.40;;
75508;SDS011;64214;47.250;11.332;2022-11-15T02:09:29;1.85;;;1.38;;
75508;SDS011;64214;47.250;11.332;2022-11-15T02:10:00;2.00;;;1.48;;
75508;SDS011;64214;47.250;11.332;2022-11-15T02:10:41;2.05;;;1.50;;
75508;SDS011;64214;47.250;11.332;2022-11-15T02:11:11;2.17;;;1.45;;
75508;SDS011;64214;47.250;11.332;2022-11-15T02:11:41;3.00;;;1.60;;
75508;SDS011;64214;47.250;11.332;2022-11-15T02:12:12;4.15;;;1.70;;
75508;SDS011;64214;47.250;11.332;2022-11-15T02:12:44;1.90;;;1.70;;
75508;SDS011;64214;47.250;11.332;2022-11-15T02:13:14;2.55;;;1.60;;
75508;SDS011;64214;47.250;11.332;2022-11-15T02:13:44;2.55;;;1.60;;
75508;SDS011;64214;47.250;11.332;2022-11-15T02:14:14;2.13;;;1.63;;
75508;SDS011;64214;47.250;11.332;2022-11-15T02:14:47;2.80;;;1.70;;
75508;SDS011;64214;47.250;11.332;2022-11-15T02:15:18;2.55;;;1.65;;
75508;SDS011;64214;47.250;11.332;2022-11-15T02:15:59;2.33;;;1.50;;
75508;SDS011;64214;47.250;11.332;2022-11-15T02:17:12;4.30;;;1.83;;
75508;SDS011;64214;47.250;11.332;2022-11-15T02:18:10;2.40;;;1.70;;
75508;SDS011;64214;47.250;11.332;2022-11-15T02:18:49;2.08;;;1.42;;
75508;SDS011;64214;47.250;11.332;2022-11-15T02:20:20;1.87;;;1.50;;
75508;SDS011;64214;47.250;11.332;2022-11-15T02:23:31;1.85;;;1.40;;
75508;SDS011;64214;47.250;11.332;2022-11-15T02:25:03;2.00;;;1.40;;
75508;SDS011;64214;47.250;11.332;2022-11-15T02:29:03;2.00;;;1.55;;
75508;SDS011;64214;47.250;11.332;2022-11-15T02:29:46;2.53;;;1.77;;
75508;SDS011;64214;47.250;11.332;2022-11-15T02:32:13;3.15;;;2.00;;
75508;SDS011;64214;47.250;11.332;2022-11-15T02:32:52;2.13;;;1.67;;
75508;SDS011;64214;47.250;11.332;2022-11-15T02:33:41;2.63;;;2.00;;
75508;SDS011;64214;47.250;11.332;2022-11-15T02:35:56;3.15;;;1.90;;
75508;SDS011;64214;47.250;11.332;2022-11-15T02:36:34;3.33;;;2.03;;
75508;SDS011;64214;47.250;11.332;2022-11-15T02:37:16;3.50;;;2.00;;
75508;SDS011;64214;47.250;11.332;2022-11-15T02:38:09;3.13;;;1.90;;
75508;SDS011;64214;47.250;11.332;2022-11-15T02:41:16;2.72;;;2.00;;
75508;SDS011;64214;47.250;11.332;2022-11-15T02:43:17;2.15;;;1.80;;
75508;SDS011;64214;47.250;11.332;2022-11-15T02:44:15;2.42;;;1.90;;
75508;SDS011;64214;47.250;11.332;2022-11-15T02:44:48;2.78;;;2.13;;
75508;SDS011;64214;47.250;11.332;2022-11-15T02:45:23;2.92;;;2.10;;
75508;SDS011;64214;47.250;11.332;2022-11-15T02:46:05;2.58;;;1.80;;
75508;SDS011;64214;47.250;11.332;2022-11-15T02:47:15;1.90;;;1.67;;
75508;SDS011;64214;47.250;11.332;2022-11-15T02:47:45;2.63;;;1.95;;
75508;SDS011;64214;47.250;11.332;2022-11-15T02:48:16;2.38;;;1.73;;
75508;SDS011;64214;47.250;11.332;2022-11-15T02:48:46;2.40;;;1.90;;
75508;SDS011;64214;47.250;11.332;2022-11-15T02:49:16;2.03;;;1.70;;
75508;SDS011;64214;47.250;11.332;2022-11-15T02:49:47;2.70;;;1.60;;
75508;SDS011;64214;47.250;11.332;2022-11-15T02:50:20;2.97;;;1.52;;
75508;SDS011;64214;47.250;11.332;2022-11-15T02:50:53;1.50;;;1.40;;
75508;SDS011;64214;47.250;11.332;2022-11-15T02:51:22;1.60;;;1.30;;
75508;SDS011;64214;47.250;11.332;2022-11-15T02:51:52;2.58;;;1.50;;
75508;SDS011;64214;47.250;11.332;2022-11-15T02:52:23;1.83;;;1.50;;
75508;SDS011;64214;47.250;11.332;2022-11-15T02:52:56;2.30;;;1.50;;
75508;SDS011;64214;47.250;11.332;2022-11-15T02:53:26;2.00;;;1.30;;
75508;SDS011;64214;47.250;11.332;2022-11-15T02:53:56;2.88;;;1.70;;
75508;SDS011;64214;47.250;11.332;2022-11-15T02:54:28;2.30;;;1.70;;
75508;SDS011;64214;47.250;11.332;2022-11-15T02:55:00;2.50;;;1.50;;
75508;SDS011;64214;47.250;11.332;2022-11-15T02:55:31;2.13;;;1.48;;
75508;SDS011;64214;47.250;11.332;2022-11-15T02:56:05;2.08;;;1.52;;
75508;SDS011;64214;47.250;11.332;2022-11-15T02:56:37;1.58;;;1.25;;
75508;SDS011;64214;47.250;11.332;2022-11-15T02:57:11;3.13;;;1.30;;
75508;SDS011;64214;47.250;11.332;2022-11-15T02:57:51;1.90;;;1.30;;
75508;SDS011;64214;47.250;11.332;2022-11-15T02:59:17;2.08;;;1.40;;
75508;SDS011;64214;47.250;11.332;2022-11-15T03:00:10;2.05;;;1.27;;
75508;SDS011;64214;47.250;11.332;2022-11-15T03:00:51;1.60;;;1.40;;
75508;SDS011;64214;47.250;11.332;2022-11-15T03:04:34;2.28;;;1.70;;
75508;SDS011;64214;47.250;11.332;2022-11-15T03:05:16;1.63;;;1.52;;
75508;SDS011;64214;47.250;11.332;2022-11-15T03:07:15;2.75;;;1.40;;
75508;SDS011;64214;47.250;11.332;2022-11-15T03:08:37;2.50;;;1.48;;
75508;SDS011;64214;47.250;11.332;2022-11-15T03:09:24;1.95;;;1.40;;
75508;SDS011;64214;47.250;11.332;2022-11-15T03:11:18;2.40;;;1.70;;
75508;SDS011;64214;47.250;11.332;2022-11-15T03:11:50;2.05;;;1.67;;
75508;SDS011;64214;47.250;11.332;2022-11-15T03:13:07;2.80;;;1.80;;
75508;SDS011;64214;47.250;11.332;2022-11-15T03:15:47;1.75;;;1.30;;
75508;SDS011;64214;47.250;11.332;2022-11-15T03:16:30;1.55;;;1.30;;
75508;SDS011;64214;47.250;11.332;2022-11-15T03:17:09;2.37;;;1.20;;
75508;SDS011;64214;47.250;11.332;2022-11-15T03:18:04;1.88;;;1.35;;
75508;SDS011;64214;47.250;11.332;2022-11-15T03:18:40;3.05;;;1.60;;
75508;SDS011;64214;47.250;11.332;2022-11-15T03:20:08;2.60;;;1.50;;
75508;SDS011;64214;47.250;11.332;2022-11-15T03:20:39;2.53;;;1.48;;
75508;SDS011;64214;47.250;11.332;2022-11-15T03:21:09;2.97;;;1.48;;
75508;SDS011;64214;47.250;11.332;2022-11-15T03:21:40;2.33;;;1.27;;
75508;SDS011;64214;47.250;11.332;2022-11-15T03:22:11;2.03;;;1.33;;
75508;SDS011;64214;47.250;11.332;2022-11-15T03:22:43;2.20;;;1.48;;
75508;SDS011;64214;47.250;11.332;2022-11-15T03:23:14;1.77;;;1.30;;
75508;SDS011;64214;47.250;11.332;2022-11-15T03:23:44;2.45;;;1.30;;
75508;SDS011;64214;47.250;11.332;2022-11-15T03:24:14;2.60;;;1.90;;
75508;SDS011;64214;47.250;11.332;2022-11-15T03:24:45;1.70;;;1.33;;
75508;SDS011;64214;47.250;11.332;2022-11-15T03:25:18;2.55;;;1.42;;
75508;SDS011;64214;47.250;11.332;2022-11-15T03:25:50;2.10;;;1.50;;
75508;SDS011;64214;47.250;11.332;2022-11-15T03:26:20;1.67;;;1.40;;
75508;SDS011;64214;47.250;11.332;2022-11-15T03:26:50;1.93;;;1.30;;
75508;SDS011;64214;47.250;11.332;2022-11-15T03:27:24;2.25;;;1.50;;
75508;SDS011;64214;47.250;11.332;2022-11-15T03:27:56;1.83;;;1.13;;
75508;SDS011;64214;47.250;11.332;2022-11-15T03:28:37;1.73;;;1.30;;
75508;SDS011;64214;47.250;11.332;2022-11-15T03:29:13;2.58;;;1.10;;
75508;SDS011;64214;47.250;11.332;2022-11-15T03:29:45;2.42;;;1.33;;
75508;SDS011;64214;47.250;11.332;2022-11-15T03:30:16;1.70;;;1.25;;
75508;SDS011;64214;47.250;11.332;2022-11-15T03:30:46;1.88;;;1.20;;
75508;SDS011;64214;47.250;11.332;2022-11-15T03:31:17;1.65;;;1.30;;
75508;SDS011;64214;47.250;11.332;2022-11-15T03:32:08;3.40;;;1.48;;
75508;SDS011;64214;47.250;11.332;2022-11-15T03:32:43;2.47;;;1.50;;
75508;SDS011;64214;47.250;11.332;2022-11-15T03:33:16;1.45;;;1.20;;
75508;SDS011;64214;47.250;11.332;2022-11-15T03:33:46;2.00;;;1.10;;
75508;SDS011;64214;47.250;11.332;2022-11-15T03:35:11;1.88;;;1.25;;
75508;SDS011;64214;47.250;11.332;2022-11-15T03:35:43;1.30;;;1.10;;
75508;SDS011;64214;47.250;11.332;2022-11-15T03:36:14;1.67;;;1.30;;
75508;SDS011;64214;47.250;11.332;2022-11-15T03:36:44;1.92;;;1.20;;
75508;SDS011;64214;47.250;11.332;2022-11-15T03:37:14;1.42;;;1.30;;
75508;SDS011;64214;47.250;11.332;2022-11-15T03:38:42;1.80;;;1.20;;
75508;SDS011;64214;47.250;11.332;2022-11-15T03:39:12;2.08;;;1.20;;
75508;SDS011;64214;47.250;11.332;2022-11-15T03:39:43;1.65;;;1.20;;
75508;SDS011;64214;47.250;11.332;2022-11-15T03:40:12;2.00;;;1.35;;